createdAt,value
2022-10-18T00:02:26.189Z,100.00
2022-10-18T00:04:52.649Z,100.00
2022-10-18T00:07:19.101Z,100.00
2022-10-18T00:09:45.952Z,100.00
2022-10-18T00:12:12.693Z,100.00
2022-10-18T00:14:39.228Z,100.00
2022-10-18T00:17:05.709Z,100.00
2022-10-18T00:19:32.365Z,100.00
2022-10-18T00:21:58.950Z,100.00
2022-10-18T00:24:25.653Z,100.00
2022-10-18T00:26:52.106Z,100.00
2022-10-18T00:29:18.590Z,100.00
2022-10-18T00:31:45.199Z,100.00
2022-10-18T00:34:13.908Z,100.00
2022-10-18T00:36:41.051Z,100.00
2022-10-18T00:39:09.413Z,100.00
2022-10-18T00:41:37.927Z,100.00
2022-10-18T00:44:27.470Z,100.00
2022-10-18T00:46:58.603Z,100.00
2022-10-18T00:49:34.221Z,100.00
2022-10-18T00:52:05.036Z,100.00
2022-10-18T00:54:34.762Z,100.00
2022-10-18T00:57:02.317Z,100.00
2022-10-18T00:59:29.921Z,100.00
2022-10-18T01:01:56.912Z,100.00
2022-10-18T01:04:23.827Z,100.00
2022-10-18T01:07:27.655Z,100.00
2022-10-18T01:10:05.230Z,100.00
2022-10-18T01:13:10.138Z,100.00
2022-10-18T01:16:11.173Z,100.00
2022-10-18T01:18:44.151Z,100.00
2022-10-18T01:21:13.493Z,100.00
2022-10-18T01:24:13.816Z,100.00
2022-10-18T01:26:50.363Z,100.00
2022-10-18T01:29:33.324Z,100.00
2022-10-18T01:32:04.936Z,100.00
2022-10-18T01:34:35.094Z,100.00
2022-10-18T01:37:07.795Z,100.00
2022-10-18T01:39:38.530Z,100.00
2022-10-18T01:42:08.834Z,100.00
2022-10-18T01:44:36.804Z,100.00
2022-10-18T01:47:05.013Z,100.00
2022-10-18T01:49:33.337Z,100.00
2022-10-18T01:51:59.890Z,100.00
2022-10-18T01:54:41.183Z,100.00
2022-10-18T01:57:42.414Z,100.00
2022-10-18T02:00:16.611Z,100.00
2022-10-18T02:02:57.011Z,100.00
2022-10-18T02:05:32.565Z,100.00
2022-10-18T02:08:18.751Z,100.00
2022-10-18T02:10:54.314Z,100.00
2022-10-18T02:13:23.857Z,100.00
2022-10-18T02:15:56.279Z,100.00
2022-10-18T02:18:32.550Z,100.00
2022-10-18T02:21:02.626Z,100.00
2022-10-18T02:23:30.776Z,100.00
2022-10-18T02:25:57.697Z,100.00
2022-10-18T02:31:14.473Z,100.00
2022-10-18T02:34:06.615Z,100.00
2022-10-18T02:36:37.897Z,100.00
2022-10-18T02:39:08.878Z,100.00
2022-10-18T02:41:35.411Z,100.00
2022-10-18T02:44:02.227Z,100.00
2022-10-18T02:46:28.806Z,100.00
2022-10-18T02:48:55.250Z,100.00
2022-10-18T02:51:21.727Z,100.00
2022-10-18T02:53:48.150Z,100.00
2022-10-18T02:56:14.627Z,100.00
2022-10-18T02:58:41.077Z,100.00
2022-10-18T03:01:07.629Z,100.00
2022-10-18T03:03:34.146Z,100.00
2022-10-18T03:06:00.877Z,100.00
2022-10-18T03:08:28.705Z,100.00
2022-10-18T03:10:55.140Z,100.00
2022-10-18T03:13:22.011Z,100.00
2022-10-18T03:15:48.695Z,100.00
2022-10-18T03:18:15.667Z,100.00
2022-10-18T03:20:42.744Z,100.00
2022-10-18T03:23:09.262Z,100.00
2022-10-18T03:25:35.793Z,100.00
2022-10-18T03:28:02.917Z,100.00
2022-10-18T03:30:29.690Z,100.00
2022-10-18T03:32:56.253Z,100.00
2022-10-18T03:35:22.776Z,100.00
2022-10-18T03:37:49.379Z,100.00
2022-10-18T03:40:16.212Z,100.00
2022-10-18T03:42:42.900Z,100.00
2022-10-18T03:45:09.798Z,100.00
2022-10-18T03:47:36.205Z,100.00
2022-10-18T03:50:03.031Z,100.00
2022-10-18T03:52:30.030Z,100.00
2022-10-18T03:54:56.807Z,100.00
2022-10-18T03:57:23.595Z,100.00
2022-10-18T03:59:50.183Z,100.00
2022-10-18T04:02:16.753Z,100.00
2022-10-18T04:04:43.262Z,100.00
2022-10-18T04:07:09.696Z,100.00
2022-10-18T04:09:36.187Z,100.00
2022-10-18T04:12:02.906Z,100.00
2022-10-18T04:14:29.764Z,100.00
2022-10-18T04:16:56.232Z,100.00
2022-10-18T04:19:22.651Z,100.00
2022-10-18T04:21:49.107Z,100.00
2022-10-18T04:24:17.849Z,100.00
2022-10-18T04:26:44.338Z,100.00
2022-10-18T04:29:11.045Z,100.00
2022-10-18T04:31:37.543Z,100.00
2022-10-18T04:34:04.450Z,100.00
2022-10-18T04:36:31.642Z,100.00
2022-10-18T04:38:58.486Z,100.00
2022-10-18T04:41:25.141Z,100.00
2022-10-18T04:43:51.640Z,100.00
2022-10-18T04:46:18.381Z,100.00
2022-10-18T04:48:45.361Z,100.00
2022-10-18T04:51:11.886Z,100.00
2022-10-18T04:53:38.387Z,100.00
2022-10-18T04:56:05.306Z,100.00
2022-10-18T04:58:32.701Z,100.00
2022-10-18T05:01:07.149Z,100.00
2022-10-18T05:03:34.235Z,100.00
2022-10-18T05:06:02.871Z,100.00
2022-10-18T05:08:32.438Z,100.00
2022-10-18T05:11:00.131Z,100.00
2022-10-18T05:13:30.001Z,100.00
2022-10-18T05:15:56.690Z,100.00
2022-10-18T05:18:23.132Z,100.00
2022-10-18T05:20:49.534Z,100.00
2022-10-18T05:23:15.959Z,100.00
2022-10-18T05:25:43.368Z,100.00
2022-10-18T05:28:34.602Z,100.00
2022-10-18T05:31:01.277Z,100.00
2022-10-18T05:33:30.067Z,100.00
2022-10-18T05:35:56.905Z,100.00
2022-10-18T05:38:24.105Z,100.00
2022-10-18T05:40:50.674Z,100.00
2022-10-18T05:43:20.042Z,100.00
2022-10-18T05:45:50.893Z,100.00
2022-10-18T05:48:17.799Z,100.00
2022-10-18T05:50:44.923Z,100.00
2022-10-18T05:53:31.780Z,100.00
2022-10-18T05:56:02.200Z,100.00
2022-10-18T05:58:29.115Z,100.00
2022-10-18T06:00:59.890Z,100.00
2022-10-18T06:03:27.694Z,100.00
2022-10-18T06:06:00.366Z,100.00
2022-10-18T06:08:29.248Z,100.00
2022-10-18T06:10:55.885Z,100.00
2022-10-18T06:13:22.443Z,100.00
2022-10-18T06:15:49.181Z,100.00
2022-10-18T06:18:16.157Z,100.00
2022-10-18T06:20:42.763Z,100.00
2022-10-18T06:23:09.298Z,100.00
2022-10-18T06:25:35.740Z,100.00
2022-10-18T06:28:07.740Z,100.00
2022-10-18T06:30:36.978Z,100.00
2022-10-18T06:33:04.449Z,100.00
2022-10-18T06:35:31.102Z,100.00
2022-10-18T06:37:57.751Z,100.00
2022-10-18T06:40:24.468Z,100.00
2022-10-18T06:43:00.133Z,100.00
2022-10-18T06:45:34.177Z,100.00
2022-10-18T06:48:01.032Z,100.00
2022-10-18T06:50:28.811Z,100.00
2022-10-18T06:52:55.374Z,100.00
2022-10-18T06:55:21.897Z,100.00
2022-10-18T06:57:48.501Z,100.00
2022-10-18T07:00:15.522Z,100.00
2022-10-18T07:02:41.993Z,100.00
2022-10-18T07:05:09.427Z,100.00
2022-10-18T07:07:36.174Z,100.00
2022-10-18T07:10:04.935Z,100.00
2022-10-18T07:12:32.738Z,100.00
2022-10-18T07:14:59.589Z,100.00
2022-10-18T07:17:26.854Z,100.00
2022-10-18T07:19:53.477Z,100.00
2022-10-18T07:22:19.995Z,100.00
2022-10-18T07:24:46.492Z,100.00
2022-10-18T07:27:13.000Z,100.00
2022-10-18T07:29:40.433Z,100.00
2022-10-18T07:32:07.016Z,100.00
2022-10-18T07:34:33.552Z,100.00
2022-10-18T07:37:02.844Z,100.00
2022-10-18T07:39:29.934Z,100.00
2022-10-18T07:41:56.695Z,100.00
2022-10-18T07:44:23.271Z,100.00
2022-10-18T07:46:49.774Z,100.00
2022-10-18T07:49:17.079Z,100.00
2022-10-18T07:51:47.894Z,100.00
2022-10-18T07:54:14.404Z,100.00
2022-10-18T07:56:41.311Z,100.00
2022-10-18T07:59:09.427Z,100.00
2022-10-18T08:01:36.004Z,100.00
2022-10-18T08:04:07.204Z,100.00
2022-10-18T08:06:35.451Z,100.00
2022-10-18T08:09:02.798Z,100.00
2022-10-18T08:11:29.374Z,100.00
2022-10-18T08:13:55.836Z,100.00
2022-10-18T08:16:25.365Z,100.00
2022-10-18T08:18:52.624Z,100.00
2022-10-18T08:21:20.579Z,100.00
2022-10-18T08:23:47.768Z,100.00
2022-10-18T08:26:19.537Z,100.00
2022-10-18T08:28:53.909Z,100.00
2022-10-18T08:31:31.112Z,100.00
2022-10-18T08:33:57.716Z,100.00
2022-10-18T08:36:24.608Z,100.00
2022-10-18T08:38:51.705Z,100.00
2022-10-18T08:41:33.740Z,100.00
2022-10-18T08:44:11.863Z,100.00
2022-10-18T08:46:44.165Z,100.00
2022-10-18T08:49:26.484Z,100.00
2022-10-18T08:51:53.981Z,100.00
2022-10-18T08:55:00.544Z,100.00
2022-10-18T08:57:27.032Z,100.00
2022-10-18T08:59:53.671Z,100.00
2022-10-18T09:02:41.976Z,100.00
2022-10-18T09:05:48.988Z,100.00
2022-10-18T09:08:37.398Z,100.00
2022-10-18T09:11:34.396Z,100.00
2022-10-18T09:14:38.411Z,100.00
2022-10-18T09:17:23.763Z,100.00
2022-10-18T09:20:03.579Z,100.00
2022-10-18T09:22:52.243Z,100.00
2022-10-18T09:25:23.368Z,99.23
2022-10-18T09:28:04.606Z,99.63
2022-10-18T09:30:49.499Z,98.91
2022-10-18T09:33:34.714Z,98.95
2022-10-18T09:36:07.798Z,97.84
2022-10-18T09:39:12.118Z,97.02
2022-10-18T09:41:49.798Z,96.43
2022-10-18T09:44:24.405Z,95.47
2022-10-18T09:46:57.805Z,95.19
2022-10-18T09:49:36.264Z,94.71
2022-10-18T09:52:09.102Z,93.80
2022-10-18T09:54:45.145Z,94.81
2022-10-18T09:57:42.929Z,94.45
2022-10-18T10:00:26.017Z,94.85
2022-10-18T10:02:52.518Z,95.50
2022-10-18T10:05:19.691Z,94.82
2022-10-18T10:07:47.919Z,93.39
2022-10-18T10:10:29.350Z,91.54
2022-10-18T10:13:16.054Z,91.52
2022-10-18T10:15:53.438Z,90.19
2022-10-18T10:18:22.393Z,91.16
2022-10-18T10:20:53.291Z,91.88
2022-10-18T10:23:50.635Z,91.92
2022-10-18T10:26:24.694Z,91.07
2022-10-18T10:28:51.617Z,90.77
2022-10-18T10:31:25.171Z,90.32
2022-10-18T10:34:14.096Z,88.11
2022-10-18T10:36:51.790Z,88.70
2022-10-18T10:39:20.132Z,87.61
2022-10-18T10:41:48.131Z,87.86
2022-10-18T10:44:18.268Z,87.24
2022-10-18T10:46:46.283Z,85.78
2022-10-18T10:49:40.635Z,85.41
2022-10-18T10:52:26.220Z,85.42
2022-10-18T10:55:05.920Z,85.88
2022-10-18T10:57:47.259Z,85.40
2022-10-18T11:00:43.666Z,85.21
2022-10-18T11:03:34.000Z,85.17
2022-10-18T11:06:02.849Z,83.69
2022-10-18T11:08:38.655Z,82.59
2022-10-18T11:11:22.256Z,80.21
2022-10-18T11:14:13.542Z,79.99
2022-10-18T11:16:58.981Z,79.49
2022-10-18T11:19:56.850Z,78.35
2022-10-18T11:22:25.907Z,78.21
2022-10-18T11:24:52.392Z,76.45
2022-10-18T11:27:29.671Z,74.00
2022-10-18T11:30:06.172Z,73.78
2022-10-18T11:33:03.508Z,72.22
2022-10-18T11:35:47.611Z,71.10
2022-10-18T11:38:52.005Z,70.54
2022-10-18T11:41:42.872Z,70.67
2022-10-18T11:44:36.718Z,70.82
2022-10-18T11:47:33.407Z,69.55
2022-10-18T11:50:12.891Z,68.70
2022-10-18T11:52:53.028Z,69.66
2022-10-18T11:55:36.657Z,68.99
2022-10-18T11:58:26.664Z,68.17
2022-10-18T12:01:12.869Z,68.59
2022-10-18T12:03:55.798Z,64.56
2022-10-18T12:06:26.462Z,64.43
2022-10-18T12:08:57.951Z,62.90
2022-10-18T12:11:29.542Z,63.96
2022-10-18T12:14:00.438Z,61.49
2022-10-18T12:16:51.063Z,61.89
2022-10-18T12:19:32.161Z,61.55
2022-10-18T12:22:13.738Z,60.44
2022-10-18T12:24:41.946Z,60.34
2022-10-18T12:27:13.161Z,60.26
2022-10-18T12:29:51.430Z,59.22
2022-10-18T12:32:24.645Z,59.00
2022-10-18T12:35:11.279Z,60.01
2022-10-18T12:38:06.258Z,60.72
2022-10-18T12:40:44.302Z,59.72
2022-10-18T12:43:18.807Z,59.38
2022-10-18T12:45:53.055Z,60.26
2022-10-18T12:49:03.085Z,60.17
2022-10-18T12:51:33.179Z,61.09
2022-10-18T12:54:02.435Z,60.33
2022-10-18T12:56:29.291Z,60.78
2022-10-18T12:59:14.250Z,60.21
2022-10-18T13:01:52.996Z,58.17
2022-10-18T13:04:29.062Z,58.54
2022-10-18T13:06:59.464Z,60.07
2022-10-18T13:09:31.466Z,60.25
2022-10-18T13:12:10.038Z,59.88
2022-10-18T13:14:59.071Z,59.78
2022-10-18T13:17:54.797Z,57.77
2022-10-18T13:20:44.305Z,57.38
2022-10-18T13:23:25.761Z,56.71
2022-10-18T13:26:10.893Z,55.32
2022-10-18T13:28:59.432Z,53.42
2022-10-18T13:31:47.654Z,53.93
2022-10-18T13:34:25.213Z,53.92
2022-10-18T13:37:23.739Z,54.77
2022-10-18T13:39:52.133Z,53.93
2022-10-18T13:42:28.504Z,54.51
2022-10-18T13:44:55.108Z,54.36
2022-10-18T13:47:36.035Z,54.09
2022-10-18T13:50:30.727Z,52.95
2022-10-18T13:53:24.881Z,53.16
2022-10-18T13:56:14.932Z,53.68
2022-10-18T13:59:14.534Z,54.45
2022-10-18T14:01:56.021Z,55.15
2022-10-18T14:04:51.308Z,55.96
2022-10-18T14:07:19.328Z,56.70
2022-10-18T14:09:54.256Z,56.66
2022-10-18T14:12:28.653Z,56.87
2022-10-18T14:15:03.355Z,57.57
2022-10-18T14:17:45.270Z,54.85
2022-10-18T14:20:49.113Z,54.54
2022-10-18T14:23:47.933Z,52.00
2022-10-18T14:26:16.945Z,51.99
2022-10-18T14:29:00.565Z,51.38
2022-10-18T14:31:28.121Z,51.72
2022-10-18T14:33:58.284Z,52.54
2022-10-18T14:36:35.823Z,53.47
2022-10-18T14:39:05.850Z,53.94
2022-10-18T14:41:40.301Z,54.17
2022-10-18T14:44:15.774Z,54.46
2022-10-18T14:46:59.487Z,54.83
2022-10-18T14:49:26.584Z,55.60
2022-10-18T14:51:56.432Z,55.79
2022-10-18T14:54:31.653Z,56.31
2022-10-18T14:57:01.117Z,56.84
2022-10-18T14:59:32.330Z,56.49
2022-10-18T15:02:02.251Z,56.69
2022-10-18T15:04:33.346Z,57.01
2022-10-18T15:07:03.537Z,56.40
2022-10-18T15:09:33.233Z,57.34
2022-10-18T15:12:02.215Z,57.02
2022-10-18T15:14:30.481Z,57.39
2022-10-18T15:17:04.923Z,57.64
2022-10-18T15:19:42.190Z,57.51
2022-10-18T15:25:16.517Z,59.26
2022-10-18T15:27:46.561Z,58.19
2022-10-18T15:30:22.704Z,58.00
2022-10-18T15:32:52.841Z,58.53
2022-10-18T15:35:26.501Z,58.62
2022-10-18T15:37:54.904Z,58.64
2022-10-18T15:40:21.265Z,59.26
2022-10-18T15:42:49.883Z,58.97
2022-10-18T15:45:25.372Z,60.40
2022-10-18T15:48:09.138Z,62.15
2022-10-18T15:50:39.548Z,62.74
2022-10-18T15:53:21.063Z,64.67
2022-10-18T15:55:59.605Z,65.97
2022-10-18T15:58:32.179Z,66.91
2022-10-18T16:01:03.562Z,67.15
2022-10-18T16:03:34.466Z,68.04
2022-10-18T16:06:07.633Z,68.56
2022-10-18T16:08:40.935Z,68.92
2022-10-18T16:11:12.793Z,69.68
2022-10-18T16:13:39.307Z,69.95
2022-10-18T16:16:06.104Z,70.82
2022-10-18T16:18:33.430Z,71.05
2022-10-18T16:21:04.569Z,71.06
2022-10-18T16:23:31.465Z,71.65
2022-10-18T16:25:58.080Z,71.74
2022-10-18T16:28:25.695Z,71.71
2022-10-18T16:31:00.222Z,72.10
2022-10-18T16:33:29.213Z,72.08
2022-10-18T16:35:56.253Z,71.91
2022-10-18T16:38:32.812Z,71.31
2022-10-18T16:41:04.497Z,71.71
2022-10-18T16:43:31.650Z,71.32
2022-10-18T16:45:58.209Z,71.44
2022-10-18T16:48:25.374Z,71.35
2022-10-18T16:50:54.666Z,71.74
2022-10-18T16:53:23.792Z,71.82
2022-10-18T16:55:56.131Z,71.97
2022-10-18T17:00:55.851Z,71.67
2022-10-18T17:03:22.592Z,71.51
2022-10-18T17:05:49.236Z,71.65
2022-10-18T17:08:22.032Z,72.00
2022-10-18T17:10:52.830Z,72.50
2022-10-18T17:13:20.474Z,72.51
2022-10-18T17:15:47.329Z,72.78
2022-10-18T17:18:16.202Z,72.85
2022-10-18T17:20:43.654Z,73.42
2022-10-18T17:23:10.942Z,73.71
2022-10-18T17:25:51.473Z,73.58
2022-10-18T17:28:27.382Z,73.77
2022-10-18T17:30:53.936Z,73.90
2022-10-18T17:33:20.544Z,74.40
2022-10-18T17:35:48.615Z,74.51
2022-10-18T17:38:15.931Z,74.62
2022-10-18T17:40:43.391Z,74.78
2022-10-18T17:43:10.269Z,74.51
2022-10-18T17:45:36.793Z,75.11
2022-10-18T17:48:03.535Z,74.78
2022-10-18T17:50:30.016Z,75.13
2022-10-18T17:52:57.290Z,75.84
2022-10-18T17:55:23.717Z,75.32
2022-10-18T17:57:51.392Z,75.37
2022-10-18T18:00:17.969Z,75.42
2022-10-18T18:02:44.989Z,75.96
2022-10-18T18:05:12.587Z,75.79
2022-10-18T18:07:39.061Z,76.65
2022-10-18T18:10:06.068Z,76.44
2022-10-18T18:12:32.888Z,76.54
2022-10-18T18:14:59.761Z,77.06
2022-10-18T18:17:34.161Z,77.28
2022-10-18T18:20:06.979Z,77.31
2022-10-18T18:22:35.226Z,77.81
2022-10-18T18:25:04.855Z,77.93
2022-10-18T18:27:31.774Z,78.23
2022-10-18T18:29:58.326Z,78.22
2022-10-18T18:32:24.869Z,78.20
2022-10-18T18:34:51.303Z,78.36
2022-10-18T18:37:17.742Z,78.44
2022-10-18T18:39:44.454Z,78.35
2022-10-18T18:42:10.992Z,78.47
2022-10-18T18:44:37.524Z,78.74
2022-10-18T18:47:08.397Z,78.98
2022-10-18T18:49:37.461Z,78.86
2022-10-18T18:52:04.178Z,79.14
2022-10-18T18:54:31.694Z,79.67
2022-10-18T18:56:58.831Z,80.04
2022-10-18T18:59:25.414Z,80.00
2022-10-18T19:01:51.859Z,79.95
2022-10-18T19:04:18.520Z,80.38
2022-10-18T19:06:46.680Z,79.85
2022-10-18T19:09:19.671Z,80.09
2022-10-18T19:11:48.095Z,80.13
2022-10-18T19:14:14.990Z,80.37
2022-10-18T19:16:48.756Z,80.30
2022-10-18T19:19:18.968Z,80.44
2022-10-18T19:21:49.063Z,80.57
2022-10-18T19:24:16.158Z,80.83
2022-10-18T19:26:47.497Z,81.69
2022-10-18T19:29:26.325Z,82.32
2022-10-18T19:31:55.116Z,82.59
2022-10-18T19:34:23.436Z,83.32
2022-10-18T19:36:50.565Z,82.98
2022-10-18T19:39:22.449Z,83.27
2022-10-18T19:41:51.192Z,82.78
2022-10-18T19:44:19.212Z,82.95
2022-10-18T19:46:46.430Z,83.15
2022-10-18T19:49:13.013Z,82.94
2022-10-18T19:51:39.826Z,83.84
2022-10-18T19:54:06.501Z,83.50
2022-10-18T19:56:33.052Z,84.47
2022-10-18T19:59:00.063Z,84.06
2022-10-18T20:01:27.903Z,83.78
2022-10-18T20:03:55.062Z,83.81
2022-10-18T20:06:21.866Z,83.78
2022-10-18T20:08:49.046Z,84.37
2022-10-18T20:11:18.087Z,84.24
2022-10-18T20:13:45.700Z,84.24
2022-10-18T20:16:14.133Z,84.50
2022-10-18T20:18:43.120Z,84.21
2022-10-18T20:21:12.363Z,84.69
2022-10-18T20:23:40.799Z,84.28
2022-10-18T20:26:18.186Z,84.44
2022-10-18T20:28:59.833Z,84.94
2022-10-18T20:31:31.216Z,84.52
2022-10-18T20:34:03.004Z,84.97
2022-10-18T20:36:31.985Z,85.20
2022-10-18T20:38:59.466Z,85.51
2022-10-18T20:41:28.924Z,85.22
2022-10-18T20:44:01.004Z,85.88
2022-10-18T20:46:32.119Z,85.92
2022-10-18T20:48:58.860Z,86.11
2022-10-18T20:51:25.890Z,86.08
2022-10-18T20:53:53.603Z,86.30
2022-10-18T20:56:23.232Z,86.56
2022-10-18T20:58:51.711Z,87.03
2022-10-18T21:01:24.000Z,86.88
2022-10-18T21:03:52.461Z,86.73
2022-10-18T21:06:24.354Z,87.54
2022-10-18T21:08:59.439Z,87.55
2022-10-18T21:11:27.873Z,87.63
2022-10-18T21:13:57.441Z,87.73
2022-10-18T21:16:24.071Z,87.83
2022-10-18T21:18:50.732Z,87.75
2022-10-18T21:21:20.214Z,88.30
2022-10-18T21:23:47.293Z,88.08
2022-10-18T21:26:19.790Z,87.54
2022-10-18T21:28:47.243Z,86.78
2022-10-18T21:31:19.502Z,86.62
2022-10-18T21:33:46.965Z,86.43
2022-10-18T21:36:14.581Z,86.36
2022-10-18T21:38:45.451Z,85.71
2022-10-18T21:41:13.946Z,85.52
2022-10-18T21:43:45.004Z,85.64
2022-10-18T21:46:13.802Z,85.06
2022-10-18T21:48:47.032Z,84.57
2022-10-18T21:51:15.745Z,84.32
2022-10-18T21:53:43.841Z,84.69
2022-10-18T21:56:13.610Z,84.80
2022-10-18T21:58:40.698Z,84.80
2022-10-18T22:01:15.231Z,84.42
2022-10-18T22:03:41.915Z,84.62
2022-10-18T22:06:14.367Z,84.86
2022-10-18T22:08:42.185Z,84.60
2022-10-18T22:11:09.502Z,84.80
2022-10-18T22:13:36.299Z,85.25
2022-10-18T22:16:04.690Z,84.93
2022-10-18T22:18:32.735Z,84.96
2022-10-18T22:21:02.949Z,84.99
2022-10-18T22:23:37.744Z,85.04
2022-10-18T22:26:07.639Z,84.48
2022-10-18T22:28:36.116Z,84.58
2022-10-18T22:31:02.721Z,84.88
2022-10-18T22:33:29.858Z,84.49
2022-10-18T22:35:56.770Z,84.86
2022-10-18T22:38:23.620Z,85.05
2022-10-18T22:40:50.134Z,86.23
2022-10-18T22:43:16.595Z,86.53
2022-10-18T22:45:43.370Z,86.60
2022-10-18T22:48:09.791Z,86.52
2022-10-18T22:50:36.360Z,86.53
2022-10-18T22:53:02.839Z,86.89
2022-10-18T22:55:29.447Z,86.96
2022-10-18T22:57:56.332Z,87.65
2022-10-18T23:00:22.893Z,88.14
2022-10-18T23:02:49.893Z,88.18
2022-10-18T23:05:16.428Z,88.01
2022-10-18T23:07:47.837Z,88.46
2022-10-18T23:10:14.624Z,88.38
2022-10-18T23:12:41.111Z,88.52
2022-10-18T23:15:08.110Z,88.66
2022-10-18T23:17:34.780Z,88.69
2022-10-18T23:20:02.792Z,88.71
2022-10-18T23:22:29.427Z,88.61
2022-10-18T23:24:56.094Z,88.54
2022-10-18T23:27:22.532Z,88.84
2022-10-18T23:29:48.985Z,89.04
2022-10-18T23:32:15.471Z,88.63
2022-10-18T23:34:41.890Z,88.88
2022-10-18T23:37:08.360Z,88.63
2022-10-18T23:39:34.798Z,88.57
2022-10-18T23:42:01.883Z,89.08
2022-10-18T23:44:28.378Z,88.98
2022-10-18T23:46:54.950Z,88.33
2022-10-18T23:49:21.391Z,88.42
2022-10-18T23:51:48.047Z,88.79
2022-10-18T23:54:14.464Z,87.95
2022-10-18T23:56:41.011Z,87.94
2022-10-18T23:59:07.477Z,87.96
